sensor_id;sensor_type;location;lat;lon;timestamp;P1;P2;P0
68841;PMS5003;55849;48.482;2.332;2024-02-26T00:00:21;3.00;1.00;1.00
68841;PMS5003;55849;48.482;2.332;2024-02-26T00:03:23;1.00;1.00;0.00
68841;PMS5003;55849;48.482;2.332;2024-02-26T00:06:24;1.00;1.00;1.00
68841;PMS5003;55849;48.482;2.332;2024-02-26T00:09:26;4.00;4.00;3.00
68841;PMS5003;55849;48.482;2.332;2024-02-26T00:12:28;1.00;1.00;1.00
68841;PMS5003;55849;48.482;2.332;2024-02-26T00:15:31;0.25;0.25;0.00
68841;PMS5003;55849;48.482;2.332;2024-02-26T05:19:39;1.00;1.00;1.00
68841;PMS5003;55849;48.482;2.332;2024-02-26T05:22:40;1.00;1.00;0.00
68841;PMS5003;55849;48.482;2.332;2024-02-26T05:25:42;1.00;1.00;1.00
68841;PMS5003;55849;48.482;2.332;2024-02-26T05:28:47;1.00;1.00;0.00
68841;PMS5003;55849;48.482;2.332;2024-02-26T05:31:48;4.00;2.50;1.00
68841;PMS5003;55849;48.482;2.332;2024-02-26T05:34:51;1.00;1.00;1.00
68841;PMS5003;55849;48.482;2.332;2024-02-26T05:37:53;3.75;1.50;0.00
68841;PMS5003;55849;48.482;2.332;2024-02-26T05:40:55;2.00;1.00;0.00
68841;PMS5003;55849;48.482;2.332;2024-02-26T05:43:56;6.25;4.00;1.50
68841;PMS5003;55849;48.482;2.332;2024-02-26T05:46:58;0.75;0.75;0.00
68841;PMS5003;55849;48.482;2.332;2024-02-26T05:50:01;3.50;1.00;0.75
68841;PMS5003;55849;48.482;2.332;2024-02-26T05:53:02;1.00;1.00;1.00
68841;PMS5003;55849;48.482;2.332;2024-02-26T05:56:05;4.00;1.00;1.00
68841;PMS5003;55849;48.482;2.332;2024-02-26T05:59:08;1.50;1.50;0.75
68841;PMS5003;55849;48.482;2.332;2024-02-26T06:02:09;1.50;1.00;0.00
68841;PMS5003;55849;48.482;2.332;2024-02-26T06:05:12;1.00;1.00;1.00
68841;PMS5003;55849;48.482;2.332;2024-02-26T06:08:14;1.00;1.00;0.00
68841;PMS5003;55849;48.482;2.332;2024-02-26T06:11:16;3.75;3.75;1.00
68841;PMS5003;55849;48.482;2.332;2024-02-26T06:14:17;1.00;0.50;0.00
68841;PMS5003;55849;48.482;2.332;2024-02-26T06:17:19;1.00;1.00;0.25
68841;PMS5003;55849;48.482;2.332;2024-02-26T06:20:22;3.00;3.00;0.50
68841;PMS5003;55849;48.482;2.332;2024-02-26T06:23:24;3.00;1.00;0.75
68841;PMS5003;55849;48.482;2.332;2024-02-26T06:26:25;1.00;1.00;1.00
68841;PMS5003;55849;48.482;2.332;2024-02-26T06:29:28;1.00;1.00;1.00
68841;PMS5003;55849;48.482;2.332;2024-02-26T06:32:30;0.50;0.50;0.00
68841;PMS5003;55849;48.482;2.332;2024-02-26T06:35:33;3.00;1.00;1.00
68841;PMS5003;55849;48.482;2.332;2024-02-26T06:38:35;4.00;1.00;0.00
68841;PMS5003;55849;48.482;2.332;2024-02-26T06:41:36;0.50;0.00;0.00
68841;PMS5003;55849;48.482;2.332;2024-02-26T06:44:39;1.75;1.00;0.00
68841;PMS5003;55849;48.482;2.332;2024-02-26T06:47:40;5.25;0.00;0.00
68841;PMS5003;55849;48.482;2.332;2024-02-26T06:50:44;6.00;3.50;1.00
68841;PMS5003;55849;48.482;2.332;2024-02-26T06:53:45;1.00;0.00;0.00
68841;PMS5003;55849;48.482;2.332;2024-02-26T06:56:47;3.50;1.00;0.00
68841;PMS5003;55849;48.482;2.332;2024-02-26T06:59:49;12.00;9.00;6.00
68841;PMS5003;55849;48.482;2.332;2024-02-26T07:02:50;12.75;9.50;7.00
68841;PMS5003;55849;48.482;2.332;2024-02-26T07:05:53;10.25;9.00;3.25
68841;PMS5003;55849;48.482;2.332;2024-02-26T07:08:55;3.00;3.00;3.00
68841;PMS5003;55849;48.482;2.332;2024-02-26T07:11:56;2.50;2.50;1.00
68841;PMS5003;55849;48.482;2.332;2024-02-26T07:14:58;1.00;1.00;0.00
68841;PMS5003;55849;48.482;2.332;2024-02-26T07:18:00;6.50;2.00;1.00
68841;PMS5003;55849;48.482;2.332;2024-02-26T07:21:04;3.75;2.50;2.50
68841;PMS5003;55849;48.482;2.332;2024-02-26T07:24:06;0.75;0.75;0.75
68841;PMS5003;55849;48.482;2.332;2024-02-26T07:27:08;5.00;1.00;1.00
68841;PMS5003;55849;48.482;2.332;2024-02-26T07:30:10;3.00;3.00;1.00
68841;PMS5003;55849;48.482;2.332;2024-02-26T07:33:12;5.00;4.00;3.00
68841;PMS5003;55849;48.482;2.332;2024-02-26T07:36:15;0.75;0.75;0.00
68841;PMS5003;55849;48.482;2.332;2024-02-26T07:39:17;0.00;0.00;0.00
68841;PMS5003;55849;48.482;2.332;2024-02-26T07:42:19;3.25;0.50;0.00
68841;PMS5003;55849;48.482;2.332;2024-02-26T07:45:20;0.00;0.00;0.00
68841;PMS5003;55849;48.482;2.332;2024-02-26T07:48:22;0.00;0.00;0.00
68841;PMS5003;55849;48.482;2.332;2024-02-26T07:51:25;0.00;0.00;0.00
68841;PMS5003;55849;48.482;2.332;2024-02-26T07:54:26;0.00;0.00;0.00
68841;PMS5003;55849;48.482;2.332;2024-02-26T07:57:28;1.00;1.00;0.00
68841;PMS5003;55849;48.482;2.332;2024-02-26T08:00:29;0.00;0.00;0.00
68841;PMS5003;55849;48.482;2.332;2024-02-26T08:03:31;0.00;0.00;0.00
68841;PMS5003;55849;48.482;2.332;2024-02-26T08:06:34;1.00;0.00;0.00
68841;PMS5003;55849;48.482;2.332;2024-02-26T08:09:35;1.00;1.00;1.00
68841;PMS5003;55849;48.482;2.332;2024-02-26T08:12:37;0.00;0.00;0.00
68841;PMS5003;55849;48.482;2.332;2024-02-26T08:15:38;2.25;0.00;0.00
68841;PMS5003;55849;48.482;2.332;2024-02-26T08:18:40;0.75;0.75;0.75
68841;PMS5003;55849;48.482;2.332;2024-02-26T08:21:43;0.00;0.00;0.00
68841;PMS5003;55849;48.482;2.332;2024-02-26T08:24:45;0.00;0.00;0.00
68841;PMS5003;55849;48.482;2.332;2024-02-26T08:27:46;0.00;0.00;0.00
68841;PMS5003;55849;48.482;2.332;2024-02-26T08:30:48;0.25;0.25;0.00
68841;PMS5003;55849;48.482;2.332;2024-02-26T08:33:49;0.50;0.50;0.25
68841;PMS5003;55849;48.482;2.332;2024-02-26T08:36:52;4.00;2.50;0.75
68841;PMS5003;55849;48.482;2.332;2024-02-26T08:39:54;0.00;0.00;0.00
68841;PMS5003;55849;48.482;2.332;2024-02-26T08:42:55;4.75;0.50;0.00
68841;PMS5003;55849;48.482;2.332;2024-02-26T08:45:57;1.00;0.00;0.00
68841;PMS5003;55849;48.482;2.332;2024-02-26T08:48:59;0.50;0.50;0.00
68841;PMS5003;55849;48.482;2.332;2024-02-26T08:52:02;0.75;0.50;0.00
68841;PMS5003;55849;48.482;2.332;2024-02-26T08:55:06;5.00;1.00;0.00
68841;PMS5003;55849;48.482;2.332;2024-02-26T08:58:09;0.25;0.25;0.00
68841;PMS5003;55849;48.482;2.332;2024-02-26T09:01:10;0.00;0.00;0.00
68841;PMS5003;55849;48.482;2.332;2024-02-26T09:04:12;0.75;0.00;0.00
68841;PMS5003;55849;48.482;2.332;2024-02-26T09:07:15;1.00;0.00;0.00
68841;PMS5003;55849;48.482;2.332;2024-02-26T09:10:16;0.25;0.00;0.00
68841;PMS5003;55849;48.482;2.332;2024-02-26T09:13:18;0.50;0.50;0.00
68841;PMS5003;55849;48.482;2.332;2024-02-26T09:16:19;0.00;0.00;0.00
68841;PMS5003;55849;48.482;2.332;2024-02-26T09:19:21;0.00;0.00;0.00
68841;PMS5003;55849;48.482;2.332;2024-02-26T09:22:24;0.00;0.00;0.00
68841;PMS5003;55849;48.482;2.332;2024-02-26T09:25:25;0.00;0.00;0.00
68841;PMS5003;55849;48.482;2.332;2024-02-26T09:28:27;0.00;0.00;0.00
68841;PMS5003;55849;48.482;2.332;2024-02-26T09:31:31;0.00;0.00;0.00
68841;PMS5003;55849;48.482;2.332;2024-02-26T09:34:34;0.00;0.00;0.00
68841;PMS5003;55849;48.482;2.332;2024-02-26T09:37:38;0.50;0.00;0.00
68841;PMS5003;55849;48.482;2.332;2024-02-26T09:40:39;0.75;0.00;0.00
68841;PMS5003;55849;48.482;2.332;2024-02-26T09:43:41;1.00;1.00;1.00
68841;PMS5003;55849;48.482;2.332;2024-02-26T09:46:46;1.00;1.00;0.00
68841;PMS5003;55849;48.482;2.332;2024-02-26T09:49:49;0.50;0.00;0.00
68841;PMS5003;55849;48.482;2.332;2024-02-26T09:52:54;0.00;0.00;0.00
68841;PMS5003;55849;48.482;2.332;2024-02-26T09:55:59;1.00;1.00;0.00
68841;PMS5003;55849;48.482;2.332;2024-02-26T09:59:01;0.00;0.00;0.00
68841;PMS5003;55849;48.482;2.332;2024-02-26T10:02:08;0.00;0.00;0.00
68841;PMS5003;55849;48.482;2.332;2024-02-26T10:05:12;0.25;0.00;0.00
68841;PMS5003;55849;48.482;2.332;2024-02-26T10:08:18;0.00;0.00;0.00
68841;PMS5003;55849;48.482;2.332;2024-02-26T10:11:22;0.00;0.00;0.00
68841;PMS5003;55849;48.482;2.332;2024-02-26T10:14:25;0.50;0.50;0.00
68841;PMS5003;55849;48.482;2.332;2024-02-26T10:17:26;0.75;0.75;0.00
68841;PMS5003;55849;48.482;2.332;2024-02-26T10:20:28;0.75;0.75;0.00
68841;PMS5003;55849;48.482;2.332;2024-02-26T10:23:33;0.00;0.00;0.00
68841;PMS5003;55849;48.482;2.332;2024-02-26T10:26:34;0.00;0.00;0.00
68841;PMS5003;55849;48.482;2.332;2024-02-26T10:29:36;0.00;0.00;0.00
68841;PMS5003;55849;48.482;2.332;2024-02-26T10:32:38;0.00;0.00;0.00
68841;PMS5003;55849;48.482;2.332;2024-02-26T10:35:44;0.00;0.00;0.00
68841;PMS5003;55849;48.482;2.332;2024-02-26T10:38:48;0.00;0.00;0.00
68841;PMS5003;55849;48.482;2.332;2024-02-26T10:41:49;0.75;0.75;0.00
68841;PMS5003;55849;48.482;2.332;2024-02-26T10:44:51;0.00;0.00;0.00
68841;PMS5003;55849;48.482;2.332;2024-02-26T10:47:52;0.75;0.75;0.00
68841;PMS5003;55849;48.482;2.332;2024-02-26T10:50:54;0.00;0.00;0.00
68841;PMS5003;55849;48.482;2.332;2024-02-26T10:53:59;1.00;1.00;0.50
68841;PMS5003;55849;48.482;2.332;2024-02-26T10:57:01;4.00;1.00;0.00
68841;PMS5003;55849;48.482;2.332;2024-02-26T11:00:05;0.00;0.00;0.00
68841;PMS5003;55849;48.482;2.332;2024-02-26T11:03:10;0.00;0.00;0.00
68841;PMS5003;55849;48.482;2.332;2024-02-26T11:06:13;0.75;0.75;0.00
68841;PMS5003;55849;48.482;2.332;2024-02-26T11:09:17;2.75;1.00;1.00
68841;PMS5003;55849;48.482;2.332;2024-02-26T11:12:20;1.00;1.00;0.00
68841;PMS5003;55849;48.482;2.332;2024-02-26T11:15:23;1.00;1.00;0.25
68841;PMS5003;55849;48.482;2.332;2024-02-26T11:18:25;0.00;0.00;0.00
68841;PMS5003;55849;48.482;2.332;2024-02-26T11:21:28;0.25;0.00;0.00
68841;PMS5003;55849;48.482;2.332;2024-02-26T11:24:39;1.00;1.00;0.75
68841;PMS5003;55849;48.482;2.332;2024-02-26T11:27:43;0.00;0.00;0.00
68841;PMS5003;55849;48.482;2.332;2024-02-26T11:30:49;0.75;0.75;0.00
68841;PMS5003;55849;48.482;2.332;2024-02-26T11:33:51;0.00;0.00;0.00
68841;PMS5003;55849;48.482;2.332;2024-02-26T11:36:53;0.00;0.00;0.00
68841;PMS5003;55849;48.482;2.332;2024-02-26T11:39:58;0.00;0.00;0.00
68841;PMS5003;55849;48.482;2.332;2024-02-26T11:43:00;0.00;0.00;0.00
68841;PMS5003;55849;48.482;2.332;2024-02-26T11:46:02;0.00;0.00;0.00
68841;PMS5003;55849;48.482;2.332;2024-02-26T11:52:32;0.00;0.00;0.00
68841;PMS5003;55849;48.482;2.332;2024-02-26T11:55:35;0.00;0.00;0.00
68841;PMS5003;55849;48.482;2.332;2024-02-26T11:58:38;0.00;0.00;0.00
68841;PMS5003;55849;48.482;2.332;2024-02-26T12:01:44;0.75;0.75;0.00
68841;PMS5003;55849;48.482;2.332;2024-02-26T12:04:47;0.75;0.75;0.00
68841;PMS5003;55849;48.482;2.332;2024-02-26T12:07:52;0.00;0.00;0.00
68841;PMS5003;55849;48.482;2.332;2024-02-26T12:10:56;0.00;0.00;0.00
68841;PMS5003;55849;48.482;2.332;2024-02-26T12:13:58;0.00;0.00;0.00
68841;PMS5003;55849;48.482;2.332;2024-02-26T12:16:59;0.50;0.00;0.00
68841;PMS5003;55849;48.482;2.332;2024-02-26T12:20:08;0.50;0.50;0.50
68841;PMS5003;55849;48.482;2.332;2024-02-26T12:23:14;0.00;0.00;0.00
68841;PMS5003;55849;48.482;2.332;2024-02-26T12:26:17;0.00;0.00;0.00
68841;PMS5003;55849;48.482;2.332;2024-02-26T12:29:19;0.00;0.00;0.00
68841;PMS5003;55849;48.482;2.332;2024-02-26T12:32:21;0.00;0.00;0.00
68841;PMS5003;55849;48.482;2.332;2024-02-26T12:35:24;0.50;0.50;0.00
68841;PMS5003;55849;48.482;2.332;2024-02-26T12:38:26;0.25;0.00;0.00
68841;PMS5003;55849;48.482;2.332;2024-02-26T12:41:31;0.00;0.00;0.00
68841;PMS5003;55849;48.482;2.332;2024-02-26T12:44:33;0.00;0.00;0.00
68841;PMS5003;55849;48.482;2.332;2024-02-26T12:47:35;0.00;0.00;0.00
68841;PMS5003;55849;48.482;2.332;2024-02-26T12:50:38;0.00;0.00;0.00
68841;PMS5003;55849;48.482;2.332;2024-02-26T12:53:39;1.00;1.00;0.00
68841;PMS5003;55849;48.482;2.332;2024-02-26T12:56:43;1.00;0.00;0.00
68841;PMS5003;55849;48.482;2.332;2024-02-26T12:59:44;0.00;0.00;0.00
68841;PMS5003;55849;48.482;2.332;2024-02-26T13:02:46;1.00;1.00;0.00
68841;PMS5003;55849;48.482;2.332;2024-02-26T13:05:49;0.00;0.00;0.00
68841;PMS5003;55849;48.482;2.332;2024-02-26T13:08:55;0.00;0.00;0.00
68841;PMS5003;55849;48.482;2.332;2024-02-26T13:12:00;0.00;0.00;0.00
68841;PMS5003;55849;48.482;2.332;2024-02-26T13:15:05;0.25;0.00;0.00
68841;PMS5003;55849;48.482;2.332;2024-02-26T13:18:11;0.00;0.00;0.00
68841;PMS5003;55849;48.482;2.332;2024-02-26T13:21:15;0.25;0.00;0.00
68841;PMS5003;55849;48.482;2.332;2024-02-26T13:24:17;0.25;0.25;0.00
68841;PMS5003;55849;48.482;2.332;2024-02-26T13:27:22;1.00;1.00;0.00
68841;PMS5003;55849;48.482;2.332;2024-02-26T13:30:24;0.50;0.50;0.00
68841;PMS5003;55849;48.482;2.332;2024-02-26T13:33:29;0.00;0.00;0.00
68841;PMS5003;55849;48.482;2.332;2024-02-26T13:36:31;0.75;0.75;0.50
68841;PMS5003;55849;48.482;2.332;2024-02-26T13:39:32;1.00;1.00;1.00
68841;PMS5003;55849;48.482;2.332;2024-02-26T13:42:35;1.00;0.00;0.00
68841;PMS5003;55849;48.482;2.332;2024-02-26T13:45:37;0.00;0.00;0.00
68841;PMS5003;55849;48.482;2.332;2024-02-26T13:48:39;0.00;0.00;0.00
68841;PMS5003;55849;48.482;2.332;2024-02-26T13:51:41;2.50;1.00;1.00
68841;PMS5003;55849;48.482;2.332;2024-02-26T13:54:43;0.00;0.00;0.00
68841;PMS5003;55849;48.482;2.332;2024-02-26T13:57:46;1.00;1.00;0.00
68841;PMS5003;55849;48.482;2.332;2024-02-26T14:00:48;1.00;1.00;0.00
68841;PMS5003;55849;48.482;2.332;2024-02-26T14:03:49;0.75;0.75;0.25
68841;PMS5003;55849;48.482;2.332;2024-02-26T14:06:51;1.00;1.00;0.75
68841;PMS5003;55849;48.482;2.332;2024-02-26T14:09:52;0.25;0.25;0.25
68841;PMS5003;55849;48.482;2.332;2024-02-26T14:12:55;1.00;1.00;1.00
68841;PMS5003;55849;48.482;2.332;2024-02-26T14:15:57;3.00;3.00;2.00
68841;PMS5003;55849;48.482;2.332;2024-02-26T14:18:59;2.00;2.00;1.00
68841;PMS5003;55849;48.482;2.332;2024-02-26T14:22:00;5.75;3.75;3.00
68841;PMS5003;55849;48.482;2.332;2024-02-26T14:25:02;2.25;1.50;1.50
68841;PMS5003;55849;48.482;2.332;2024-02-26T14:28:05;2.00;1.00;1.00
68841;PMS5003;55849;48.482;2.332;2024-02-26T14:31:07;1.50;1.50;1.00
68841;PMS5003;55849;48.482;2.332;2024-02-26T14:34:10;2.00;2.00;1.75
68841;PMS5003;55849;48.482;2.332;2024-02-26T14:37:12;2.25;2.25;2.00
68841;PMS5003;55849;48.482;2.332;2024-02-26T14:40:13;2.50;1.00;1.00
68841;PMS5003;55849;48.482;2.332;2024-02-26T14:43:16;0.25;0.25;0.25
68841;PMS5003;55849;48.482;2.332;2024-02-26T14:46:18;3.00;0.75;0.00
68841;PMS5003;55849;48.482;2.332;2024-02-26T14:49:19;1.00;1.00;0.50
68841;PMS5003;55849;48.482;2.332;2024-02-26T14:52:21;2.00;1.00;1.00
68841;PMS5003;55849;48.482;2.332;2024-02-26T14:55:23;0.00;0.00;0.00
68841;PMS5003;55849;48.482;2.332;2024-02-26T14:58:26;3.50;2.00;1.00
68841;PMS5003;55849;48.482;2.332;2024-02-26T15:01:27;0.50;0.50;0.50
68841;PMS5003;55849;48.482;2.332;2024-02-26T15:04:29;1.75;1.75;1.00
68841;PMS5003;55849;48.482;2.332;2024-02-26T15:07:30;3.50;3.50;3.00
68841;PMS5003;55849;48.482;2.332;2024-02-26T15:10:32;2.50;2.50;1.50
68841;PMS5003;55849;48.482;2.332;2024-02-26T15:13:35;3.00;3.00;1.75
68841;PMS5003;55849;48.482;2.332;2024-02-26T15:16:37;1.75;1.00;0.50
68841;PMS5003;55849;48.482;2.332;2024-02-26T15:19:39;0.50;0.50;0.50
68841;PMS5003;55849;48.482;2.332;2024-02-26T15:22:40;0.00;0.00;0.00
68841;PMS5003;55849;48.482;2.332;2024-02-26T15:25:42;0.00;0.00;0.00
68841;PMS5003;55849;48.482;2.332;2024-02-26T15:28:45;4.75;1.00;0.75
68841;PMS5003;55849;48.482;2.332;2024-02-26T15:31:47;0.00;0.00;0.00
68841;PMS5003;55849;48.482;2.332;2024-02-26T15:34:48;1.25;0.50;0.00
68841;PMS5003;55849;48.482;2.332;2024-02-26T15:37:50;2.75;1.75;1.75
68841;PMS5003;55849;48.482;2.332;2024-02-26T15:40:52;1.00;1.00;0.00
68841;PMS5003;55849;48.482;2.332;2024-02-26T15:43:55;3.00;0.00;0.00
68841;PMS5003;55849;48.482;2.332;2024-02-26T15:46:57;1.00;1.00;0.25
68841;PMS5003;55849;48.482;2.332;2024-02-26T15:49:59;1.00;1.00;0.00
68841;PMS5003;55849;48.482;2.332;2024-02-26T15:53:01;0.00;0.00;0.00
68841;PMS5003;55849;48.482;2.332;2024-02-26T15:56:03;1.50;1.00;0.00
68841;PMS5003;55849;48.482;2.332;2024-02-26T15:59:08;1.00;1.00;1.00
68841;PMS5003;55849;48.482;2.332;2024-02-26T16:02:10;1.00;1.00;1.00
68841;PMS5003;55849;48.482;2.332;2024-02-26T16:05:12;0.00;0.00;0.00
68841;PMS5003;55849;48.482;2.332;2024-02-26T16:08:14;0.50;0.50;0.00
68841;PMS5003;55849;48.482;2.332;2024-02-26T16:11:20;1.00;1.00;1.00
68841;PMS5003;55849;48.482;2.332;2024-02-26T16:14:25;1.00;1.00;0.00
68841;PMS5003;55849;48.482;2.332;2024-02-26T16:17:38;2.50;1.00;1.00
68841;PMS5003;55849;48.482;2.332;2024-02-26T16:20:46;0.50;0.50;0.25
68841;PMS5003;55849;48.482;2.332;2024-02-26T16:23:48;0.25;0.25;0.25
68841;PMS5003;55849;48.482;2.332;2024-02-26T16:26:49;2.00;0.75;0.25
68841;PMS5003;55849;48.482;2.332;2024-02-26T16:29:52;1.00;1.00;1.00
68841;PMS5003;55849;48.482;2.332;2024-02-26T16:32:54;3.75;2.00;1.00
68841;PMS5003;55849;48.482;2.332;2024-02-26T16:35:55;1.00;1.00;1.00
68841;PMS5003;55849;48.482;2.332;2024-02-26T16:38:57;3.00;3.00;1.00
68841;PMS5003;55849;48.482;2.332;2024-02-26T16:41:59;2.00;2.00;1.00
68841;PMS5003;55849;48.482;2.332;2024-02-26T16:45:02;0.50;0.50;0.50
68841;PMS5003;55849;48.482;2.332;2024-02-26T16:48:04;3.00;3.00;1.00
68841;PMS5003;55849;48.482;2.332;2024-02-26T16:51:06;3.25;1.50;1.00
68841;PMS5003;55849;48.482;2.332;2024-02-26T16:54:07;4.50;4.50;3.00
68841;PMS5003;55849;48.482;2.332;2024-02-26T16:57:09;3.00;3.00;1.50
68841;PMS5003;55849;48.482;2.332;2024-02-26T17:00:12;3.25;3.25;2.00
68841;PMS5003;55849;48.482;2.332;2024-02-26T17:03:17;6.25;4.00;1.00
68841;PMS5003;55849;48.482;2.332;2024-02-26T17:06:18;3.00;3.00;3.00
68841;PMS5003;55849;48.482;2.332;2024-02-26T17:09:23;4.00;1.00;1.00
68841;PMS5003;55849;48.482;2.332;2024-02-26T17:12:24;4.00;4.00;1.00
68841;PMS5003;55849;48.482;2.332;2024-02-26T17:15:27;3.00;2.50;1.00
68841;PMS5003;55849;48.482;2.332;2024-02-26T17:18:29;3.75;3.00;1.50
68841;PMS5003;55849;48.482;2.332;2024-02-26T17:21:31;5.00;3.00;1.00
68841;PMS5003;55849;48.482;2.332;2024-02-26T17:24:33;4.00;4.00;3.00
68841;PMS5003;55849;48.482;2.332;2024-02-26T17:27:34;4.00;4.00;1.00
68841;PMS5003;55849;48.482;2.332;2024-02-26T17:30:38;3.25;3.00;1.00
68841;PMS5003;55849;48.482;2.332;2024-02-26T17:33:40;5.50;4.50;3.00
68841;PMS5003;55849;48.482;2.332;2024-02-26T17:36:41;7.00;3.50;3.25
68841;PMS5003;55849;48.482;2.332;2024-02-26T17:39:43;5.75;4.00;3.00
68841;PMS5003;55849;48.482;2.332;2024-02-26T17:42:45;4.50;4.50;1.50
68841;PMS5003;55849;48.482;2.332;2024-02-26T17:45:48;10.75;9.00;4.00
68841;PMS5003;55849;48.482;2.332;2024-02-26T17:48:49;7.50;7.50;3.75
68841;PMS5003;55849;48.482;2.332;2024-02-26T17:51:51;6.00;4.00;3.00
68841;PMS5003;55849;48.482;2.332;2024-02-26T17:54:52;7.00;4.50;3.00
68841;PMS5003;55849;48.482;2.332;2024-02-26T17:57:54;6.00;6.00;3.00
68841;PMS5003;55849;48.482;2.332;2024-02-26T18:00:57;4.75;4.50;3.00
68841;PMS5003;55849;48.482;2.332;2024-02-26T18:03:58;10.00;4.00;3.00
68841;PMS5003;55849;48.482;2.332;2024-02-26T18:07:00;5.00;3.25;3.00
68841;PMS5003;55849;48.482;2.332;2024-02-26T18:10:03;7.00;6.50;3.00
68841;PMS5003;55849;48.482;2.332;2024-02-26T18:13:08;3.00;3.00;3.00
68841;PMS5003;55849;48.482;2.332;2024-02-26T18:16:11;6.25;4.00;3.00
68841;PMS5003;55849;48.482;2.332;2024-02-26T18:19:13;9.00;4.00;3.00
68841;PMS5003;55849;48.482;2.332;2024-02-26T18:22:15;3.00;3.00;3.00
68841;PMS5003;55849;48.482;2.332;2024-02-26T18:25:16;4.00;4.00;3.00
68841;PMS5003;55849;48.482;2.332;2024-02-26T18:28:18;7.00;6.00;2.00
68841;PMS5003;55849;48.482;2.332;2024-02-26T18:31:22;7.75;5.50;3.50
68841;PMS5003;55849;48.482;2.332;2024-02-26T18:34:24;6.00;4.00;3.00
68841;PMS5003;55849;48.482;2.332;2024-02-26T18:37:26;5.00;5.00;4.00
68841;PMS5003;55849;48.482;2.332;2024-02-26T18:40:28;5.50;5.50;3.00
68841;PMS5003;55849;48.482;2.332;2024-02-26T18:43:30;9.00;6.50;4.00
68841;PMS5003;55849;48.482;2.332;2024-02-26T18:46:33;6.25;4.00;3.00
68841;PMS5003;55849;48.482;2.332;2024-02-26T18:49:38;6.50;3.75;3.00
68841;PMS5003;55849;48.482;2.332;2024-02-26T18:52:39;9.50;9.00;4.00
68841;PMS5003;55849;48.482;2.332;2024-02-26T18:55:41;6.00;4.00;3.00
68841;PMS5003;55849;48.482;2.332;2024-02-26T18:58:42;5.00;4.00;3.00
68841;PMS5003;55849;48.482;2.332;2024-02-26T19:01:45;6.00;6.00;4.00
68841;PMS5003;55849;48.482;2.332;2024-02-26T19:04:47;6.00;6.00;4.00
68841;PMS5003;55849;48.482;2.332;2024-02-26T19:07:49;10.00;4.50;3.50
68841;PMS5003;55849;48.482;2.332;2024-02-26T19:10:55;7.00;7.00;4.00
68841;PMS5003;55849;48.482;2.332;2024-02-26T19:13:58;3.75;2.50;1.00
68841;PMS5003;55849;48.482;2.332;2024-02-26T19:17:01;10.50;9.00;6.75
68841;PMS5003;55849;48.482;2.332;2024-02-26T19:20:03;8.00;5.50;4.00
68841;PMS5003;55849;48.482;2.332;2024-02-26T19:23:06;4.50;4.00;3.00
68841;PMS5003;55849;48.482;2.332;2024-02-26T19:26:07;9.75;9.50;6.50
68841;PMS5003;55849;48.482;2.332;2024-02-26T19:29:09;4.00;4.00;3.50
68841;PMS5003;55849;48.482;2.332;2024-02-26T19:32:12;7.50;4.00;3.00
68841;PMS5003;55849;48.482;2.332;2024-02-26T19:35:13;9.00;6.00;4.00
68841;PMS5003;55849;48.482;2.332;2024-02-26T19:38:15;6.75;6.25;4.00
68841;PMS5003;55849;48.482;2.332;2024-02-26T19:41:18;8.50;7.00;4.50
68841;PMS5003;55849;48.482;2.332;2024-02-26T19:44:19;11.50;6.50;4.50
68841;PMS5003;55849;48.482;2.332;2024-02-26T19:47:22;7.00;7.00;5.00
68841;PMS5003;55849;48.482;2.332;2024-02-26T19:50:24;6.50;6.50;4.00
68841;PMS5003;55849;48.482;2.332;2024-02-26T19:53:25;10.75;8.75;6.25
68841;PMS5003;55849;48.482;2.332;2024-02-26T19:56:27;8.00;7.00;4.00
68841;PMS5003;55849;48.482;2.332;2024-02-26T19:59:29;8.25;6.50;4.00
68841;PMS5003;55849;48.482;2.332;2024-02-26T20:02:32;10.75;6.00;4.00
68841;PMS5003;55849;48.482;2.332;2024-02-26T20:05:34;9.75;9.75;6.75
68841;PMS5003;55849;48.482;2.332;2024-02-26T20:08:36;7.50;6.50;6.00
68841;PMS5003;55849;48.482;2.332;2024-02-26T20:11:38;7.75;4.00;3.00
68841;PMS5003;55849;48.482;2.332;2024-02-26T20:14:41;11.50;9.00;4.00
68841;PMS5003;55849;48.482;2.332;2024-02-26T20:17:44;11.00;7.50;4.00
68841;PMS5003;55849;48.482;2.332;2024-02-26T20:20:46;7.00;7.00;4.50
68841;PMS5003;55849;48.482;2.332;2024-02-26T20:23:48;9.00;6.00;4.00
68841;PMS5003;55849;48.482;2.332;2024-02-26T20:26:49;9.50;6.75;4.00
68841;PMS5003;55849;48.482;2.332;2024-02-26T20:29:51;9.00;8.50;6.00
68841;PMS5003;55849;48.482;2.332;2024-02-26T20:32:57;11.75;9.00;7.00
68841;PMS5003;55849;48.482;2.332;2024-02-26T20:35:59;8.00;8.00;4.00
68841;PMS5003;55849;48.482;2.332;2024-02-26T20:39:01;10.00;6.00;4.00
68841;PMS5003;55849;48.482;2.332;2024-02-26T20:42:03;9.25;8.00;5.00
68841;PMS5003;55849;48.482;2.332;2024-02-26T20:45:06;7.00;6.25;3.25
68841;PMS5003;55849;48.482;2.332;2024-02-26T20:48:09;2.00;2.00;0.25
68841;PMS5003;55849;48.482;2.332;2024-02-26T20:51:10;10.75;7.00;6.00
68841;PMS5003;55849;48.482;2.332;2024-02-26T20:54:12;8.25;8.25;6.50
68841;PMS5003;55849;48.482;2.332;2024-02-26T20:57:14;12.25;7.00;4.00
68841;PMS5003;55849;48.482;2.332;2024-02-26T21:00:16;6.25;6.25;4.50
68841;PMS5003;55849;48.482;2.332;2024-02-26T21:03:19;7.00;5.50;3.50
68841;PMS5003;55849;48.482;2.332;2024-02-26T21:06:21;6.75;6.00;5.00
68841;PMS5003;55849;48.482;2.332;2024-02-26T21:09:23;6.75;6.75;3.75
68841;PMS5003;55849;48.482;2.332;2024-02-26T21:12:24;8.50;6.00;4.00
68841;PMS5003;55849;48.482;2.332;2024-02-26T21:15:26;7.75;6.50;4.00
68841;PMS5003;55849;48.482;2.332;2024-02-26T21:18:30;5.00;5.00;3.75
68841;PMS5003;55849;48.482;2.332;2024-02-26T21:21:32;7.50;6.75;3.75
68841;PMS5003;55849;48.482;2.332;2024-02-26T21:24:35;4.50;4.50;4.00
68841;PMS5003;55849;48.482;2.332;2024-02-26T21:27:37;9.00;7.50;4.00
68841;PMS5003;55849;48.482;2.332;2024-02-26T21:30:38;8.00;6.00;4.00
68841;PMS5003;55849;48.482;2.332;2024-02-26T21:33:43;9.75;4.50;3.25
68841;PMS5003;55849;48.482;2.332;2024-02-26T21:36:44;9.00;4.00;3.75
68841;PMS5003;55849;48.482;2.332;2024-02-26T21:39:46;6.00;6.00;3.75
68841;PMS5003;55849;48.482;2.332;2024-02-26T21:42:47;6.25;5.50;3.75
68841;PMS5003;55849;48.482;2.332;2024-02-26T21:45:49;4.50;4.50;3.00
68841;PMS5003;55849;48.482;2.332;2024-02-26T21:48:52;10.00;9.00;6.00
68841;PMS5003;55849;48.482;2.332;2024-02-26T21:51:53;8.50;8.50;6.50
68841;PMS5003;55849;48.482;2.332;2024-02-26T21:54:57;8.00;6.25;3.50
68841;PMS5003;55849;48.482;2.332;2024-02-26T21:57:58;9.50;9.50;4.50
68841;PMS5003;55849;48.482;2.332;2024-02-26T22:01:00;10.00;7.00;5.50
68841;PMS5003;55849;48.482;2.332;2024-02-26T22:04:03;6.75;6.75;4.00
68841;PMS5003;55849;48.482;2.332;2024-02-26T22:07:04;7.00;7.00;4.50
68841;PMS5003;55849;48.482;2.332;2024-02-26T22:10:06;11.25;7.50;4.50
68841;PMS5003;55849;48.482;2.332;2024-02-26T22:13:09;11.25;11.25;6.00
68841;PMS5003;55849;48.482;2.332;2024-02-26T22:16:10;9.00;7.00;6.00
68841;PMS5003;55849;48.482;2.332;2024-02-26T22:19:14;7.50;7.50;6.75
68841;PMS5003;55849;48.482;2.332;2024-02-26T22:22:18;9.00;6.00;3.75
